createdAt,value
2022-11-03T00:00:32.461Z,100927.28
2022-11-03T00:05:53.859Z,100940.97
2022-11-03T00:11:03.196Z,100936.88
2022-11-03T00:16:06.479Z,100936.88
2022-11-03T00:21:11.355Z,100933.69
2022-11-03T00:26:14.817Z,100927.66
2022-11-03T00:31:18.373Z,100924.56
2022-11-03T00:36:22.923Z,100908.03
2022-11-03T00:41:25.897Z,100913.63
2022-11-03T00:46:30.236Z,100913.09
2022-11-03T00:51:36.024Z,100915.28
2022-11-03T00:56:39.563Z,100921.06
2022-11-03T01:01:46.729Z,100928.50
2022-11-03T01:06:53.375Z,100928.81
2022-11-03T01:11:59.806Z,100916.91
2022-11-03T01:17:02.692Z,100908.41
2022-11-03T01:22:09.700Z,100906.78
2022-11-03T01:27:15.170Z,100904.44
2022-11-03T01:32:17.842Z,100907.34
2022-11-03T01:37:21.847Z,100892.72
2022-11-03T01:42:24.519Z,100883.59
2022-11-03T01:47:28.011Z,100879.50
2022-11-03T01:52:36.531Z,100874.34
2022-11-03T01:57:40.819Z,100872.88
2022-11-03T02:02:43.741Z,100850.72
2022-11-03T02:07:50.959Z,100849.25
2022-11-03T02:12:53.738Z,100840.34
2022-11-03T02:17:56.404Z,100825.38
2022-11-03T02:23:14.592Z,100814.75
2022-11-03T02:28:19.352Z,100815.63
2022-11-03T02:33:29.674Z,100812.09
2022-11-03T02:38:32.914Z,100810.69
2022-11-03T02:43:36.905Z,100806.19
2022-11-03T02:48:39.546Z,100808.22
2022-11-03T02:53:45.206Z,100796.75
2022-11-03T02:58:52.817Z,100788.81
2022-11-03T03:03:56.387Z,100779.16
2022-11-03T03:09:04.885Z,100771.28
2022-11-03T03:14:10.664Z,100771.41
2022-11-03T03:19:19.443Z,100764.44
2022-11-03T03:24:26.598Z,100754.69
2022-11-03T03:29:34.699Z,100748.53
2022-11-03T03:34:37.738Z,100749.50
2022-11-03T03:39:40.892Z,100727.53
2022-11-03T03:44:44.949Z,100731.19
2022-11-03T03:49:47.649Z,100730.41
2022-11-03T03:54:50.379Z,100722.28
2022-11-03T03:59:54.549Z,100725.03
2022-11-03T04:04:58.396Z,100717.09
2022-11-03T04:10:01.133Z,100711.84
2022-11-03T04:15:22.787Z,100701.19
2022-11-03T04:20:43.095Z,100703.03
2022-11-03T04:25:50.682Z,100705.50
2022-11-03T04:30:58.762Z,100702.06
2022-11-03T04:36:02.166Z,100693.06
2022-11-03T04:41:08.438Z,100696.59
2022-11-03T04:46:13.176Z,100694.59
2022-11-03T04:51:17.217Z,100691.25
2022-11-03T04:56:21.738Z,100684.25
2022-11-03T05:01:26.111Z,100672.78
2022-11-03T05:06:29.718Z,100683.50
2022-11-03T05:11:33.447Z,100683.50
2022-11-03T05:16:37.666Z,100672.97
2022-11-03T05:21:40.372Z,100664.19
2022-11-03T05:26:43.094Z,100654.31
2022-11-03T05:31:48.303Z,100654.44
2022-11-03T05:36:50.954Z,100655.41
2022-11-03T05:41:53.591Z,100649.16
2022-11-03T05:46:58.120Z,100639.41
2022-11-03T05:52:00.768Z,100646.59
2022-11-03T05:57:03.409Z,100644.97
2022-11-03T06:02:12.373Z,100635.34
2022-11-03T06:07:17.834Z,100636.19
2022-11-03T06:12:21.261Z,100637.16
2022-11-03T06:17:26.410Z,100626.78
2022-11-03T06:22:30.473Z,100622.25
2022-11-03T06:27:33.120Z,100624.94
2022-11-03T06:32:37.124Z,100618.84
2022-11-03T06:37:39.803Z,100626.13
2022-11-03T06:42:42.737Z,100623.22
2022-11-03T06:47:47.849Z,100628.78
2022-11-03T06:52:50.535Z,100625.06
2022-11-03T06:57:55.246Z,100626.00
2022-11-03T07:03:02.460Z,100618.72
2022-11-03T07:08:12.403Z,100605.44
2022-11-03T07:13:16.609Z,100596.41
2022-11-03T07:18:23.480Z,100585.56
2022-11-03T07:23:27.246Z,100585.56
2022-11-03T07:28:32.862Z,100579.34
2022-11-03T07:33:36.880Z,100575.59
2022-11-03T07:38:39.748Z,100572.91
2022-11-03T07:43:42.902Z,100566.81
2022-11-03T07:48:47.846Z,100564.88
2022-11-03T07:53:51.449Z,100556.69
2022-11-03T07:58:55.611Z,100559.16
2022-11-03T08:04:01.703Z,100557.25
2022-11-03T08:09:04.449Z,100540.19
2022-11-03T08:14:07.289Z,100540.38
2022-11-03T08:19:11.389Z,100528.19
2022-11-03T08:24:14.186Z,100516.59
2022-11-03T08:29:17.574Z,100510.25
2022-11-03T08:34:21.616Z,100500.38
2022-11-03T08:39:24.263Z,100486.75
2022-11-03T08:44:27.251Z,100480.63
2022-11-03T08:49:31.270Z,100474.41
2022-11-03T08:54:36.760Z,100467.72
2022-11-03T08:59:39.495Z,100468.03
2022-11-03T09:04:46.007Z,100456.25
2022-11-03T09:15:11.618Z,100446.91
2022-11-03T09:20:15.646Z,100431.28
2022-11-03T09:25:18.955Z,100423.03
2022-11-03T09:30:22.051Z,100418.53
2022-11-03T09:35:26.313Z,100405.78
2022-11-03T09:40:29.008Z,100399.97
2022-11-03T09:45:31.673Z,100392.13
2022-11-03T09:50:35.730Z,100392.66
2022-11-03T09:55:38.364Z,100372.47
2022-11-03T10:00:41.132Z,100361.28
2022-11-03T10:05:45.582Z,100360.09
2022-11-03T10:10:48.518Z,100341.09
2022-11-03T10:15:51.229Z,100330.16
2022-11-03T10:20:55.245Z,100322.75
2022-11-03T10:26:00.948Z,100310.06
2022-11-03T10:31:11.961Z,100305.44
2022-11-03T10:36:25.316Z,100296.94
2022-11-03T10:41:28.622Z,100287.81
2022-11-03T10:51:58.532Z,100272.72
2022-11-03T10:57:01.204Z,100252.72
2022-11-03T11:02:04.054Z,100248.13
2022-11-03T11:07:19.313Z,100246.16
2022-11-03T11:12:23.399Z,100243.50
2022-11-03T11:17:50.972Z,100233.28
2022-11-03T11:22:55.029Z,100223.38
2022-11-03T11:28:00.649Z,100213.13
2022-11-03T11:33:13.793Z,100207.91
2022-11-03T11:39:05.364Z,100204.41
2022-11-03T11:44:41.382Z,100191.72
2022-11-03T11:49:45.384Z,100184.94
2022-11-03T11:54:48.059Z,100170.00
2022-11-03T11:59:51.073Z,100161.06
2022-11-03T12:04:59.562Z,100149.22
2022-11-03T12:10:08.690Z,100146.47
2022-11-03T12:15:48.715Z,100122.44
2022-11-03T12:20:52.800Z,100105.84
2022-11-03T12:25:55.473Z,100092.28
2022-11-03T12:30:58.149Z,100081.66
2022-11-03T12:36:02.157Z,100074.56
2022-11-03T12:41:18.810Z,100059.53
2022-11-03T12:46:23.027Z,100044.13
2022-11-03T12:51:27.038Z,100025.41
2022-11-03T12:56:29.738Z,100000.53
2022-11-03T13:01:33.294Z,99990.16
2022-11-03T13:06:37.671Z,99982.38
2022-11-03T13:11:58.053Z,99972.50
2022-11-03T13:17:03.655Z,99978.97
2022-11-03T13:22:07.762Z,99969.94
2022-11-03T13:27:10.630Z,99955.06
2022-11-03T13:32:13.448Z,99940.56
2022-11-03T13:37:17.549Z,99945.03
2022-11-03T13:42:20.263Z,99939.34
2022-11-03T13:47:34.272Z,99919.44
2022-11-03T13:52:47.588Z,99906.25
2022-11-03T14:08:36.994Z,99873.94
2022-11-03T14:13:39.775Z,99858.63
2022-11-03T14:18:42.426Z,99844.38
2022-11-03T14:23:55.422Z,99839.00
2022-11-03T14:28:58.207Z,99839.84
2022-11-03T14:34:00.864Z,99842.53
2022-11-03T14:39:04.950Z,99829.38
2022-11-03T14:44:07.755Z,99813.81
2022-11-03T14:49:10.425Z,99810.28
2022-11-03T14:54:14.562Z,99794.28
2022-11-03T14:59:17.227Z,99784.69
2022-11-03T15:04:19.979Z,99774.09
2022-11-03T15:09:24.083Z,99757.16
2022-11-03T15:14:26.858Z,99753.88
2022-11-03T15:19:29.526Z,99747.16
2022-11-03T15:29:56.527Z,99751.44
2022-11-03T15:34:59.990Z,99743.53
2022-11-03T15:40:04.370Z,99739.25
2022-11-03T15:45:08.536Z,99736.09
2022-11-03T15:50:11.623Z,99718.44
2022-11-03T15:55:15.972Z,99694.19
2022-11-03T16:00:19.682Z,99702.09
2022-11-03T16:05:25.174Z,99698.00
2022-11-03T16:10:29.550Z,99690.06
2022-11-03T16:15:32.186Z,99686.84
2022-11-03T16:20:34.997Z,99671.16
2022-11-03T16:25:39.512Z,99652.41
2022-11-03T16:30:42.458Z,99628.66
2022-11-03T16:35:45.161Z,99638.16
2022-11-03T16:40:49.235Z,99625.59
2022-11-03T16:45:51.980Z,99614.03
2022-11-03T16:50:56.766Z,99592.44
2022-11-03T16:56:01.012Z,99599.47
2022-11-03T17:01:04.590Z,99580.56
2022-11-03T17:06:07.621Z,99571.44
2022-11-03T17:11:11.627Z,99565.22
2022-11-03T17:16:14.298Z,99568.75
2022-11-03T17:21:16.992Z,99561.91
2022-11-03T17:26:22.850Z,99550.94
2022-11-03T17:31:26.041Z,99537.41
2022-11-03T17:36:28.712Z,99537.28
2022-11-03T17:41:33.084Z,99533.91
2022-11-03T17:46:35.737Z,99527.84
2022-11-03T17:51:40.400Z,99521.03
2022-11-03T17:56:44.434Z,99501.00
2022-11-03T18:01:48.039Z,99499.31
2022-11-03T18:06:50.818Z,99509.75
2022-11-03T18:12:12.302Z,99485.59
2022-11-03T18:17:15.047Z,99491.09
2022-11-03T18:22:17.766Z,99482.22
2022-11-03T18:27:25.261Z,99464.69
2022-11-03T18:32:33.108Z,99462.13
2022-11-03T18:37:38.533Z,99452.69
2022-11-03T18:42:42.658Z,99445.88
2022-11-03T18:47:45.586Z,99422.19
2022-11-03T18:52:49.262Z,99431.38
2022-11-03T18:57:53.575Z,99431.22
2022-11-03T19:02:56.555Z,99419.19
2022-11-03T19:07:59.297Z,99402.69
2022-11-03T19:13:03.352Z,99388.56
2022-11-03T19:18:06.853Z,99382.78
2022-11-03T19:23:10.495Z,99366.53
2022-11-03T19:28:15.613Z,99356.94
2022-11-03T19:33:21.003Z,99351.00
2022-11-03T19:38:23.850Z,99345.94
2022-11-03T19:43:33.330Z,99345.63
2022-11-03T19:48:37.295Z,99340.56
2022-11-03T20:04:49.140Z,99329.28
2022-11-03T20:09:51.751Z,99324.19
2022-11-03T20:14:54.772Z,99326.88
2022-11-03T20:19:58.835Z,99306.69
2022-11-03T20:25:03.030Z,99314.16
2022-11-03T20:30:07.218Z,99303.84
2022-11-03T20:35:14.609Z,99294.25
2022-11-03T20:40:20.389Z,99287.56
2022-11-03T20:45:23.742Z,99278.81
2022-11-03T20:50:30.632Z,99273.97
2022-11-03T20:55:33.315Z,99270.56
2022-11-03T21:00:35.930Z,99270.69
2022-11-03T21:05:39.995Z,99261.38
2022-11-03T21:10:42.588Z,99254.00
2022-11-03T21:16:23.467Z,99251.47
2022-11-03T21:21:27.160Z,99242.53
2022-11-03T21:26:29.836Z,99253.84
2022-11-03T21:31:32.510Z,99231.38
2022-11-03T21:36:37.052Z,99223.56
2022-11-03T21:41:57.454Z,99230.16
2022-11-03T21:47:00.134Z,99241.47
2022-11-03T21:52:04.302Z,99240.00
2022-11-03T21:57:07.425Z,99247.78
2022-11-03T22:02:10.963Z,99250.16
2022-11-03T22:07:14.990Z,99249.84
2022-11-03T22:12:17.786Z,99247.47
2022-11-03T22:17:20.537Z,99243.25
2022-11-03T22:22:42.431Z,99238.72
2022-11-03T22:27:45.208Z,99228.00
2022-11-03T22:32:51.228Z,99227.16
2022-11-03T22:38:05.787Z,99214.00
2022-11-03T22:43:35.462Z,99203.97
2022-11-03T22:48:38.358Z,99204.41
2022-11-03T22:54:00.283Z,99192.50
2022-11-03T22:59:02.885Z,99193.34
2022-11-03T23:04:06.567Z,99176.25
2022-11-03T23:09:11.801Z,99171.59
2022-11-03T23:14:14.411Z,99175.41
2022-11-03T23:19:34.676Z,99165.50
2022-11-03T23:25:07.618Z,99159.16
2022-11-03T23:30:10.974Z,99158.91
2022-11-03T23:35:14.565Z,99167.81
2022-11-03T23:40:20.523Z,99153.22
2022-11-03T23:45:41.692Z,99151.53
2022-11-03T23:50:44.507Z,99127.53
2022-11-03T23:56:02.415Z,99137.94
